Warner Springs, CA (92086)

3:41 AM PDT on September 04, 2015 (GMT -0700)
MesoWest | | Change Station
CLOSE
Current Station
Personal Weather Station
Location: Warner Springs, CA
Elevation: 2970 ft
Nearby Weather Stations

Elev 2970 ft 33.32 °N, 116.68 °W | Updated 34 minutes ago

Partly Cloudy
Partly Cloudy
52 °F
Feels Like 52 °F
N
1
Wind Variable Wind from NNE
Gusts 1.0 mph

Today
High -- | Low -- °F
--% Chance of Precip.
Yesterday
High -- | Low -- °F
Precip. -- in
6:22 AM 7:08 PM
Waning Gibbous, 61% visible
Pressure 29.85 in
Visibility 10.0 miles
Clouds Overcast 1300 ft
Dew Point 44 °F
Humidity 73%
Rainfall in
Snow Depth Not available.
UV 0 out of 12
Pollen 7.30 out of 12
Air Quality Not available.
Flu Activity Not available.
METAR KRNM 040953Z AUTO 00000KT 10SM OVC013 17/13 A2989 RMK AO2 SLP106 T01720133
Pressure 29.85 in
Visibility 10.0 miles
Clouds Overcast 1300 ft
Dew Point 44 °F
Humidity 73%
Rainfall in
Snow Depth Not available.
UV 0 out of 12
Pollen 7.30 out of 12
Air Quality Not available.
Flu Activity Not available.
METAR KRNM 040953Z AUTO 00000KT 10SM OVC013 17/13 A2989 RMK AO2 SLP106 T01720133

10-Day Weather Forecast

×

Almanac

Astronomy

Sep. 04, 2015 Rise Set
Actual Time
Civil Twilight
Nautical Twilight
Astronomical Twilight
Moon
Length of Visible Light
Length of Day
Tomorrow will be .
, % of the Moon is Illuminated

Today's Extremes

State Highs State Lows

Community

WunderPhotos

Upload Photos

1,852,146 photos uploaded!

WunderBlogs® & News

Nearby

Air Quality

  Air Quality AQ Index Pollutant
Not available.

Snow Depth

Station Depth Elevation

Earthquake Activity

City Distance Mag. Time & Date
Minimum magnitude displayed is 2.5.

Coastal Water Temperatures

Place Temperature

Stations

Nearby Weather Stations

Station Location Temp. Windchill Dew Point Humidity Wind Precip. Elev Updated Type